createdAt,value
2017-08-13T00:01:51.252Z,97.77
2017-08-13T00:04:19.081Z,97.68
2017-08-13T00:06:46.960Z,97.62
2017-08-13T00:09:14.825Z,97.58
2017-08-13T00:11:42.711Z,97.58
2017-08-13T00:14:10.575Z,97.63
2017-08-13T00:16:38.404Z,97.67
2017-08-13T00:19:06.213Z,97.65
2017-08-13T00:21:34.024Z,97.63
2017-08-13T00:24:01.808Z,97.61
2017-08-13T00:26:29.642Z,97.57
2017-08-13T00:28:57.525Z,97.56
2017-08-13T00:31:25.369Z,97.55
2017-08-13T00:33:53.236Z,97.55
2017-08-13T00:36:21.046Z,97.55
2017-08-13T00:38:48.963Z,97.54
2017-08-13T00:41:16.807Z,97.56
2017-08-13T00:43:44.684Z,97.60
2017-08-13T00:46:12.518Z,97.62
2017-08-13T00:48:40.344Z,97.65
2017-08-13T00:51:08.197Z,97.68
2017-08-13T00:53:36.048Z,97.69
2017-08-13T00:56:03.934Z,97.73
2017-08-13T00:58:31.751Z,97.75
2017-08-13T01:00:59.665Z,97.75
2017-08-13T01:03:27.464Z,97.79
2017-08-13T01:05:55.391Z,97.82
2017-08-13T01:08:23.217Z,97.84
2017-08-13T01:10:51.089Z,97.86
2017-08-13T01:13:18.901Z,97.91
2017-08-13T01:15:46.809Z,97.92
2017-08-13T01:18:14.609Z,97.93
2017-08-13T01:20:42.392Z,97.95
2017-08-13T01:23:10.207Z,97.98
2017-08-13T01:25:38.028Z,97.97
2017-08-13T01:28:05.895Z,98.02
2017-08-13T01:30:33.733Z,98.00
2017-08-13T01:33:01.600Z,98.01
2017-08-13T01:35:29.428Z,98.02
2017-08-13T01:37:57.229Z,98.04
2017-08-13T01:40:25.064Z,98.05
2017-08-13T01:42:52.820Z,98.06
2017-08-13T01:45:20.623Z,98.07
2017-08-13T01:47:48.517Z,98.07
2017-08-13T01:50:16.354Z,98.05
2017-08-13T01:52:44.156Z,98.04
2017-08-13T01:55:12.013Z,98.03
2017-08-13T01:57:39.853Z,98.01
2017-08-13T02:00:07.715Z,97.99
2017-08-13T02:02:35.537Z,97.99
2017-08-13T02:05:03.403Z,97.99
2017-08-13T02:07:31.264Z,97.98
2017-08-13T02:09:59.106Z,97.99
2017-08-13T02:12:26.917Z,98.00
2017-08-13T02:14:54.783Z,97.98
2017-08-13T02:17:22.623Z,97.97
2017-08-13T02:19:50.455Z,97.94
2017-08-13T02:22:18.315Z,97.98
2017-08-13T02:24:46.138Z,98.04
2017-08-13T02:27:14.019Z,98.08
2017-08-13T02:29:41.888Z,98.08
2017-08-13T02:32:09.755Z,98.05
2017-08-13T02:34:37.576Z,98.03
2017-08-13T02:37:05.483Z,97.99
2017-08-13T02:39:33.322Z,97.99
2017-08-13T02:42:01.095Z,98.03
2017-08-13T02:44:28.926Z,98.06
2017-08-13T02:46:56.783Z,98.04
2017-08-13T02:49:24.595Z,98.04
2017-08-13T02:51:52.420Z,98.06
2017-08-13T02:54:20.209Z,98.09
2017-08-13T02:56:48.047Z,98.12
2017-08-13T02:59:15.924Z,98.14
2017-08-13T03:01:43.742Z,98.17
2017-08-13T03:04:11.606Z,98.19
2017-08-13T03:06:39.343Z,98.19
2017-08-13T03:09:07.188Z,98.13
2017-08-13T03:11:35.009Z,98.13
2017-08-13T03:14:02.890Z,98.17
2017-08-13T03:16:30.716Z,98.20
2017-08-13T03:18:58.581Z,98.21
2017-08-13T03:21:26.409Z,98.21
2017-08-13T03:23:54.193Z,98.22
2017-08-13T03:26:22.035Z,98.24
2017-08-13T03:28:49.843Z,98.29
2017-08-13T03:31:17.705Z,98.37
2017-08-13T03:33:45.539Z,98.42
2017-08-13T03:36:13.416Z,98.42
2017-08-13T03:38:41.225Z,98.42
2017-08-13T03:41:09.142Z,98.39
2017-08-13T03:43:36.969Z,98.36
2017-08-13T03:46:04.829Z,98.31
2017-08-13T03:48:32.653Z,98.27
2017-08-13T03:51:00.505Z,98.23
2017-08-13T03:53:28.323Z,98.19
2017-08-13T03:55:56.118Z,98.16
2017-08-13T03:58:23.951Z,98.12
2017-08-13T04:00:51.776Z,98.10
2017-08-13T04:03:19.618Z,98.05
2017-08-13T04:05:47.499Z,97.99
2017-08-13T04:08:15.365Z,97.94
2017-08-13T04:10:43.201Z,97.91
2017-08-13T04:13:11.100Z,97.89
2017-08-13T04:15:38.912Z,97.89
2017-08-13T04:18:06.770Z,97.86
2017-08-13T04:20:34.601Z,97.82
2017-08-13T04:23:02.457Z,97.77
2017-08-13T04:25:30.281Z,97.72
2017-08-13T04:27:58.117Z,97.69
2017-08-13T04:30:25.993Z,97.69
2017-08-13T04:32:53.821Z,97.68
2017-08-13T04:35:21.692Z,97.66
2017-08-13T04:37:49.515Z,97.64
2017-08-13T04:40:17.423Z,97.63
2017-08-13T04:42:45.153Z,97.56
2017-08-13T04:45:13.015Z,97.40
2017-08-13T04:47:40.834Z,97.30
2017-08-13T04:50:08.724Z,97.26
2017-08-13T04:52:36.533Z,97.25
2017-08-13T04:55:04.400Z,97.25
2017-08-13T04:57:32.139Z,97.19
2017-08-13T04:59:59.972Z,97.13
2017-08-13T05:02:27.849Z,97.05
2017-08-13T05:04:55.701Z,96.88
2017-08-13T05:07:23.604Z,96.68
2017-08-13T05:09:51.451Z,96.52
2017-08-13T05:12:19.315Z,96.41
2017-08-13T05:14:47.113Z,96.35
2017-08-13T05:17:14.981Z,96.37
2017-08-13T05:19:42.789Z,96.33
2017-08-13T05:22:10.643Z,96.28
2017-08-13T05:24:38.451Z,96.19
2017-08-13T05:27:06.343Z,96.16
2017-08-13T05:29:34.193Z,96.18
2017-08-13T05:32:02.060Z,96.16
2017-08-13T05:34:29.878Z,96.17
2017-08-13T05:36:57.703Z,96.20
2017-08-13T05:39:25.589Z,96.19
2017-08-13T05:41:53.400Z,96.12
2017-08-13T05:44:21.267Z,96.13
2017-08-13T05:46:49.084Z,96.02
2017-08-13T05:49:16.961Z,95.81
2017-08-13T05:51:44.796Z,95.81
2017-08-13T05:54:12.686Z,95.66
2017-08-13T05:56:40.498Z,95.43
2017-08-13T05:59:08.376Z,95.41
2017-08-13T06:01:36.231Z,95.33
2017-08-13T06:04:04.145Z,95.14
2017-08-13T06:06:31.996Z,94.91
2017-08-13T06:08:59.869Z,94.78
2017-08-13T06:11:27.700Z,94.82
2017-08-13T06:13:55.535Z,94.64
2017-08-13T06:16:23.436Z,94.47
2017-08-13T06:18:51.282Z,94.42
2017-08-13T06:21:19.164Z,94.49
2017-08-13T06:23:47.033Z,94.38
2017-08-13T06:26:14.908Z,94.45
2017-08-13T06:28:42.716Z,94.30
2017-08-13T06:31:10.629Z,94.15
2017-08-13T06:33:38.381Z,93.72
2017-08-13T06:36:06.265Z,93.22
2017-08-13T06:38:34.104Z,93.29
2017-08-13T06:41:01.970Z,92.83
2017-08-13T06:43:29.697Z,92.87
2017-08-13T06:45:57.506Z,92.78
2017-08-13T06:48:25.231Z,92.66
2017-08-13T06:50:52.984Z,92.67
2017-08-13T06:53:20.728Z,92.40
2017-08-13T06:55:48.430Z,91.64
2017-08-13T06:58:16.215Z,91.95
2017-08-13T07:00:43.963Z,91.99
2017-08-13T07:03:11.721Z,92.04
2017-08-13T07:05:39.450Z,91.44
2017-08-13T07:08:07.247Z,90.78
2017-08-13T07:10:35.015Z,89.56
2017-08-13T07:13:02.798Z,89.11
2017-08-13T07:15:30.512Z,88.95
2017-08-13T07:17:58.332Z,89.62
2017-08-13T07:20:26.053Z,89.05
2017-08-13T07:22:54.375Z,88.22
2017-08-13T07:25:22.175Z,87.84
2017-08-13T07:27:49.931Z,86.67
2017-08-13T07:30:17.675Z,85.12
2017-08-13T07:32:45.417Z,85.36
2017-08-13T07:35:13.200Z,86.05
2017-08-13T07:37:40.932Z,87.14
2017-08-13T07:40:08.709Z,87.56
2017-08-13T07:42:36.447Z,87.69
2017-08-13T07:45:04.325Z,85.54
2017-08-13T07:47:32.145Z,84.68
2017-08-13T07:49:59.931Z,82.05
2017-08-13T07:52:27.751Z,81.55
2017-08-13T07:54:55.605Z,84.21
2017-08-13T07:57:23.382Z,82.54
2017-08-13T07:59:51.311Z,83.60
2017-08-13T08:02:19.173Z,81.55
2017-08-13T08:04:47.004Z,81.34
2017-08-13T08:07:14.908Z,82.36
2017-08-13T08:09:42.734Z,81.76
2017-08-13T08:12:10.535Z,80.98
2017-08-13T08:14:38.349Z,79.53
2017-08-13T08:17:06.202Z,76.46
2017-08-13T08:19:33.972Z,75.73
2017-08-13T08:22:01.845Z,75.13
2017-08-13T08:24:29.716Z,76.73
2017-08-13T08:26:57.581Z,73.96
2017-08-13T08:29:25.406Z,73.65
2017-08-13T08:31:53.282Z,75.24
2017-08-13T08:34:21.098Z,75.56
2017-08-13T08:36:48.903Z,77.06
2017-08-13T08:39:16.717Z,74.38
2017-08-13T08:41:44.568Z,75.71
2017-08-13T08:44:12.428Z,75.06
2017-08-13T08:46:40.280Z,74.62
2017-08-13T08:49:08.059Z,73.57
2017-08-13T08:51:35.879Z,75.54
2017-08-13T08:54:03.652Z,78.71
2017-08-13T08:56:31.362Z,76.58
2017-08-13T08:58:59.156Z,77.30
2017-08-13T09:01:26.890Z,73.73
2017-08-13T09:03:54.705Z,71.14
2017-08-13T09:06:22.568Z,72.19
2017-08-13T09:08:50.415Z,73.51
2017-08-13T09:11:18.296Z,74.66
2017-08-13T09:13:46.132Z,75.21
2017-08-13T09:16:14.004Z,74.50
2017-08-13T09:18:41.850Z,71.49
2017-08-13T09:21:09.723Z,70.27
2017-08-13T09:23:37.571Z,69.73
2017-08-13T09:26:05.442Z,69.10
2017-08-13T09:28:33.250Z,69.42
2017-08-13T09:31:02.093Z,69.34
2017-08-13T09:33:29.921Z,68.46
2017-08-13T09:35:57.849Z,70.32
2017-08-13T09:38:25.700Z,68.14
2017-08-13T09:40:53.536Z,66.01
2017-08-13T09:43:21.343Z,68.23
2017-08-13T09:45:49.080Z,66.13
2017-08-13T09:48:16.876Z,67.95
2017-08-13T09:50:44.588Z,66.88
2017-08-13T09:53:12.383Z,66.76
2017-08-13T09:55:40.130Z,66.14
2017-08-13T09:58:07.920Z,64.68
2017-08-13T10:00:35.755Z,63.29
2017-08-13T10:03:03.667Z,63.63
2017-08-13T10:05:31.552Z,65.03
2017-08-13T10:07:59.488Z,64.71
2017-08-13T10:10:27.353Z,66.30
2017-08-13T10:12:55.216Z,63.68
2017-08-13T10:15:23.119Z,63.12
2017-08-13T10:17:50.954Z,64.53
2017-08-13T10:20:18.848Z,62.75
2017-08-13T10:22:46.690Z,60.95
2017-08-13T10:25:14.579Z,60.51
2017-08-13T10:27:42.425Z,63.19
2017-08-13T10:30:10.320Z,64.61
2017-08-13T10:32:38.161Z,65.28
2017-08-13T10:35:06.018Z,63.14
2017-08-13T10:37:33.857Z,64.54
2017-08-13T10:40:01.738Z,65.41
2017-08-13T10:42:29.579Z,64.26
2017-08-13T10:44:57.431Z,65.17
2017-08-13T10:47:25.210Z,61.83
2017-08-13T10:49:53.063Z,63.02
2017-08-13T10:52:20.917Z,64.04
2017-08-13T10:54:48.743Z,61.63
2017-08-13T10:57:16.625Z,61.10
2017-08-13T10:59:44.455Z,57.75
2017-08-13T11:02:12.345Z,59.00
2017-08-13T11:04:40.164Z,57.03
2017-08-13T11:07:08.522Z,58.03
2017-08-13T11:09:36.355Z,61.37
2017-08-13T11:12:04.289Z,58.76
2017-08-13T11:14:32.124Z,58.15
2017-08-13T11:16:59.997Z,60.44
2017-08-13T11:19:27.858Z,67.19
2017-08-13T11:21:55.750Z,69.94
2017-08-13T11:24:23.594Z,72.27
2017-08-13T11:26:51.499Z,74.63
2017-08-13T11:29:19.316Z,75.96
2017-08-13T11:31:47.202Z,76.73
2017-08-13T11:34:15.056Z,77.37
2017-08-13T11:36:42.957Z,78.66
2017-08-13T11:39:10.764Z,79.64
2017-08-13T11:41:38.640Z,80.96
2017-08-13T11:44:06.463Z,81.09
2017-08-13T11:46:34.345Z,82.15
2017-08-13T11:49:02.157Z,81.39
2017-08-13T11:51:30.166Z,81.17
2017-08-13T11:53:57.963Z,78.59
2017-08-13T11:56:25.806Z,73.97
2017-08-13T11:58:53.694Z,76.17
2017-08-13T12:01:21.523Z,73.25
2017-08-13T12:03:49.410Z,74.35
2017-08-13T12:06:17.294Z,73.56
2017-08-13T12:08:45.151Z,72.84
2017-08-13T12:11:12.964Z,73.05
2017-08-13T12:13:41.187Z,72.99
2017-08-13T12:16:09.027Z,72.10
2017-08-13T12:18:36.903Z,71.17
2017-08-13T12:21:04.727Z,70.36
2017-08-13T12:23:32.584Z,67.94
2017-08-13T12:26:00.435Z,67.30
2017-08-13T12:28:28.377Z,67.47
2017-08-13T12:30:56.194Z,67.61
2017-08-13T12:33:23.996Z,65.69
2017-08-13T12:35:51.869Z,63.86
2017-08-13T12:38:19.701Z,64.92
2017-08-13T12:40:47.567Z,64.46
2017-08-13T12:43:15.387Z,65.29
2017-08-13T12:45:43.316Z,64.41
2017-08-13T12:48:11.169Z,66.10
2017-08-13T12:50:39.082Z,66.37
2017-08-13T12:53:06.922Z,67.27
2017-08-13T12:55:34.830Z,67.24
2017-08-13T12:58:02.694Z,66.75
2017-08-13T13:00:30.565Z,64.62
2017-08-13T13:02:58.468Z,66.59
2017-08-13T13:05:26.313Z,66.48
2017-08-13T13:07:54.250Z,66.46
2017-08-13T13:10:22.146Z,65.12
2017-08-13T13:12:49.935Z,66.30
2017-08-13T13:15:17.787Z,63.58
2017-08-13T13:17:45.661Z,65.47
2017-08-13T13:20:13.513Z,64.72
2017-08-13T13:22:41.417Z,65.96
2017-08-13T13:25:09.262Z,63.36
2017-08-13T13:27:37.162Z,61.87
2017-08-13T13:30:04.998Z,57.96
2017-08-13T13:32:32.874Z,56.54
2017-08-13T13:35:00.695Z,60.52
2017-08-13T13:37:28.540Z,59.69
2017-08-13T13:39:56.420Z,59.35
2017-08-13T13:42:24.175Z,60.80
2017-08-13T13:44:52.064Z,60.95
2017-08-13T13:47:19.928Z,61.38
2017-08-13T13:49:47.823Z,63.18
2017-08-13T13:52:15.680Z,62.86
2017-08-13T13:54:43.570Z,64.23
2017-08-13T13:57:11.396Z,64.31
2017-08-13T13:59:39.296Z,64.52
2017-08-13T14:02:07.152Z,63.14
2017-08-13T14:04:35.057Z,63.61
2017-08-13T14:07:02.953Z,62.98
2017-08-13T14:09:30.903Z,64.96
2017-08-13T14:11:58.764Z,64.82
2017-08-13T14:14:26.600Z,64.75
2017-08-13T14:16:54.506Z,64.74
2017-08-13T14:19:22.348Z,64.30
2017-08-13T14:21:50.231Z,65.07
2017-08-13T14:24:18.113Z,64.24
2017-08-13T14:26:46.004Z,62.96
2017-08-13T14:29:13.831Z,63.96
2017-08-13T14:31:41.714Z,63.98
2017-08-13T14:34:09.552Z,63.62
2017-08-13T14:36:37.424Z,62.82
2017-08-13T14:39:05.308Z,64.65
2017-08-13T14:41:33.196Z,63.29
2017-08-13T14:44:01.017Z,62.21
2017-08-13T14:46:28.903Z,60.34
2017-08-13T14:48:56.787Z,60.73
2017-08-13T14:51:24.645Z,61.02
2017-08-13T14:53:52.433Z,61.73
2017-08-13T14:56:20.278Z,61.91
2017-08-13T14:58:48.170Z,61.58
2017-08-13T15:01:16.013Z,62.79
2017-08-13T15:03:43.871Z,62.98
2017-08-13T15:06:11.741Z,64.94
2017-08-13T15:08:39.724Z,64.90
2017-08-13T15:11:07.571Z,65.73
2017-08-13T15:13:35.489Z,63.56
2017-08-13T15:16:03.338Z,64.16
2017-08-13T15:18:31.176Z,63.92
2017-08-13T15:20:59.055Z,63.91
2017-08-13T15:23:26.893Z,64.31
2017-08-13T15:25:54.786Z,65.54
2017-08-13T15:28:22.625Z,65.22
2017-08-13T15:30:50.505Z,64.94
2017-08-13T15:33:18.365Z,66.09
2017-08-13T15:35:46.418Z,64.33
2017-08-13T15:38:14.247Z,66.48
2017-08-13T15:40:42.132Z,65.83
2017-08-13T15:43:09.952Z,64.99
2017-08-13T15:45:37.839Z,63.90
2017-08-13T15:48:05.706Z,64.58
2017-08-13T15:50:33.611Z,64.00
2017-08-13T15:53:01.443Z,64.53
2017-08-13T15:55:29.317Z,66.47
2017-08-13T15:57:57.162Z,66.76
2017-08-13T16:00:24.994Z,67.73
2017-08-13T16:02:52.878Z,67.10
2017-08-13T16:05:20.693Z,66.31
2017-08-13T16:07:48.617Z,66.40
2017-08-13T16:10:16.439Z,66.93
2017-08-13T16:12:44.380Z,66.90
2017-08-13T16:15:12.257Z,67.51
2017-08-13T16:17:40.146Z,66.94
2017-08-13T16:20:08.044Z,66.18
2017-08-13T16:22:35.985Z,66.61
2017-08-13T16:25:03.875Z,65.29
2017-08-13T16:27:31.792Z,66.36
2017-08-13T16:29:59.638Z,65.94
2017-08-13T16:32:27.520Z,65.04
2017-08-13T16:34:55.338Z,64.98
2017-08-13T16:37:23.160Z,65.40
2017-08-13T16:39:51.050Z,64.54
2017-08-13T16:42:18.856Z,65.99
2017-08-13T16:44:46.759Z,65.04
2017-08-13T16:47:14.664Z,66.12
2017-08-13T16:49:42.595Z,65.73
2017-08-13T16:52:10.436Z,65.59
2017-08-13T16:54:38.301Z,66.41
2017-08-13T16:57:06.175Z,67.47
2017-08-13T16:59:34.044Z,67.98
2017-08-13T17:02:01.858Z,67.05
2017-08-13T17:04:29.747Z,65.89
2017-08-13T17:06:57.630Z,67.95
2017-08-13T17:09:25.476Z,66.93
2017-08-13T17:11:53.357Z,67.27
2017-08-13T17:14:21.243Z,67.86
2017-08-13T17:16:49.184Z,68.17
2017-08-13T17:19:17.049Z,67.82
2017-08-13T17:21:44.960Z,68.83
2017-08-13T17:24:12.796Z,69.19
2017-08-13T17:26:40.672Z,69.60
2017-08-13T17:29:08.511Z,70.20
2017-08-13T17:31:36.380Z,69.41
2017-08-13T17:34:04.225Z,68.96
2017-08-13T17:36:32.112Z,70.12
2017-08-13T17:38:59.938Z,70.58
2017-08-13T17:41:27.772Z,71.10
2017-08-13T17:43:55.663Z,72.10
2017-08-13T17:46:23.508Z,72.91
2017-08-13T17:48:51.395Z,72.39
2017-08-13T17:51:19.237Z,73.29
2017-08-13T17:53:47.257Z,73.60
2017-08-13T17:56:15.122Z,73.84
2017-08-13T17:58:42.987Z,74.18
2017-08-13T18:01:10.830Z,74.58
2017-08-13T18:03:38.703Z,74.98
2017-08-13T18:06:06.648Z,75.37
2017-08-13T18:08:34.543Z,75.66
2017-08-13T18:11:02.381Z,76.18
2017-08-13T18:13:30.137Z,76.65
2017-08-13T18:15:57.986Z,77.52
2017-08-13T18:18:25.816Z,78.29
2017-08-13T18:20:53.693Z,79.43
2017-08-13T18:23:21.566Z,80.00
2017-08-13T18:25:49.421Z,80.27
2017-08-13T18:28:17.280Z,80.28
2017-08-13T18:30:45.262Z,80.98
2017-08-13T18:33:13.085Z,80.89
2017-08-13T18:35:40.977Z,80.18
2017-08-13T18:38:08.824Z,80.79
2017-08-13T18:40:36.712Z,81.19
2017-08-13T18:43:04.569Z,81.64
2017-08-13T18:45:32.424Z,83.44
2017-08-13T18:48:00.335Z,84.38
2017-08-13T18:50:28.190Z,85.36
2017-08-13T18:52:56.057Z,85.74
2017-08-13T18:55:23.881Z,86.44
2017-08-13T18:57:51.791Z,86.72
2017-08-13T19:00:19.657Z,87.02
2017-08-13T19:02:47.550Z,87.46
2017-08-13T19:05:15.393Z,87.47
2017-08-13T19:07:43.322Z,87.18
2017-08-13T19:10:11.196Z,87.34
2017-08-13T19:12:38.965Z,87.51
2017-08-13T19:15:06.802Z,87.62
2017-08-13T19:17:34.711Z,87.80
2017-08-13T19:20:02.749Z,87.80
2017-08-13T19:22:30.609Z,87.99
2017-08-13T19:24:58.494Z,88.45
2017-08-13T19:27:26.351Z,88.34
2017-08-13T19:29:54.243Z,88.32
2017-08-13T19:32:22.093Z,88.71
2017-08-13T19:34:50.018Z,88.83
2017-08-13T19:37:17.856Z,89.08
2017-08-13T19:39:45.735Z,89.39
2017-08-13T19:42:13.574Z,89.64
2017-08-13T19:44:41.478Z,89.65
2017-08-13T19:47:09.305Z,89.66
2017-08-13T19:49:37.103Z,89.77
2017-08-13T19:52:04.976Z,89.73
2017-08-13T19:54:32.890Z,89.74
2017-08-13T19:57:00.655Z,89.70
2017-08-13T19:59:28.497Z,89.81
2017-08-13T20:01:56.387Z,89.72
2017-08-13T20:04:24.255Z,89.83
2017-08-13T20:06:52.186Z,89.96
2017-08-13T20:09:20.032Z,90.03
2017-08-13T20:11:47.945Z,89.88
2017-08-13T20:14:15.808Z,90.14
2017-08-13T20:16:43.720Z,90.13
2017-08-13T20:19:11.534Z,90.06
2017-08-13T20:21:39.425Z,90.18
2017-08-13T20:24:07.235Z,90.13
2017-08-13T20:26:35.100Z,90.30
2017-08-13T20:29:02.901Z,90.34
2017-08-13T20:31:30.815Z,90.46
2017-08-13T20:33:58.678Z,90.55
2017-08-13T20:36:26.531Z,90.60
2017-08-13T20:38:54.447Z,90.51
2017-08-13T20:41:22.273Z,90.12
2017-08-13T20:43:50.060Z,90.15
2017-08-13T20:46:17.799Z,90.35
2017-08-13T20:48:45.693Z,90.41
2017-08-13T20:51:13.508Z,90.55
2017-08-13T20:53:41.427Z,90.57
2017-08-13T20:56:09.263Z,90.49
2017-08-13T20:58:37.142Z,90.42
2017-08-13T21:01:04.988Z,90.25
2017-08-13T21:03:32.818Z,90.86
2017-08-13T21:06:00.717Z,90.98
2017-08-13T21:08:28.605Z,90.92
2017-08-13T21:10:56.505Z,91.05
2017-08-13T21:13:24.382Z,91.05
2017-08-13T21:15:52.255Z,91.19
2017-08-13T21:18:20.102Z,91.30
2017-08-13T21:20:47.987Z,91.44
2017-08-13T21:23:15.740Z,91.18
2017-08-13T21:25:43.534Z,91.05
2017-08-13T21:28:11.342Z,90.92
2017-08-13T21:30:39.230Z,90.73
2017-08-13T21:33:07.096Z,90.86
2017-08-13T21:35:34.936Z,91.27
2017-08-13T21:38:02.706Z,91.70
2017-08-13T21:40:30.536Z,91.58
2017-08-13T21:42:58.320Z,91.46
2017-08-13T21:45:26.172Z,91.04
2017-08-13T21:47:54.045Z,90.81
2017-08-13T21:50:21.855Z,90.60
2017-08-13T21:52:49.641Z,90.46
2017-08-13T21:55:17.450Z,90.42
2017-08-13T21:57:45.209Z,90.66
2017-08-13T22:00:13.078Z,90.77
2017-08-13T22:02:40.948Z,90.84
2017-08-13T22:05:08.791Z,91.14
2017-08-13T22:07:36.706Z,91.24
2017-08-13T22:10:04.531Z,91.16
2017-08-13T22:12:32.450Z,91.20
2017-08-13T22:15:00.269Z,91.38
2017-08-13T22:17:28.072Z,91.71
2017-08-13T22:19:55.939Z,91.78
2017-08-13T22:22:23.795Z,91.84
2017-08-13T22:24:51.697Z,91.70
2017-08-13T22:27:19.431Z,91.53
2017-08-13T22:29:47.300Z,91.48
2017-08-13T22:32:15.108Z,91.50
2017-08-13T22:34:42.975Z,91.54
2017-08-13T22:37:10.810Z,91.56
2017-08-13T22:39:38.684Z,91.39
2017-08-13T22:42:06.511Z,91.17
2017-08-13T22:44:34.385Z,91.21
2017-08-13T22:47:02.227Z,91.42
2017-08-13T22:49:30.080Z,91.54
2017-08-13T22:51:57.901Z,91.78
2017-08-13T22:54:25.705Z,91.81
2017-08-13T22:56:53.503Z,91.82
2017-08-13T22:59:21.309Z,92.29
2017-08-13T23:01:49.141Z,92.48
2017-08-13T23:04:16.978Z,92.05
2017-08-13T23:06:44.864Z,91.52
2017-08-13T23:09:12.702Z,91.40
2017-08-13T23:11:40.587Z,91.18
2017-08-13T23:14:08.376Z,91.08
2017-08-13T23:16:36.367Z,91.28
2017-08-13T23:19:04.189Z,91.48
2017-08-13T23:21:32.060Z,91.14
2017-08-13T23:23:59.866Z,90.95
2017-08-13T23:26:27.710Z,90.84
2017-08-13T23:28:55.592Z,90.72
2017-08-13T23:31:23.423Z,90.69
2017-08-13T23:33:51.273Z,90.81
2017-08-13T23:36:19.106Z,91.09
2017-08-13T23:38:46.961Z,91.34
2017-08-13T23:41:14.798Z,91.64
2017-08-13T23:43:42.688Z,92.10
2017-08-13T23:46:10.503Z,92.43
2017-08-13T23:48:38.332Z,92.65
2017-08-13T23:51:06.251Z,92.78
2017-08-13T23:53:34.048Z,92.48
2017-08-13T23:56:01.904Z,92.12
2017-08-13T23:58:29.732Z,91.86
